Karlovy, Czech Republic

8:17 AM CEST on April 25, 2017 (GMT +0200)
Karlovy Vary | | Change Station

Elev 1982 ft 50.20 °N, 12.92 °E | Updated 17 minutes ago

Clear
Clear
45 °F
Feels Like 45 °F
N
0
Wind Variable Wind from North

Today
High -- | Low -- °F
--% Chance of Precip.
Yesterday
High -- | Low -- °F
Precip. -- in
Pressure 29.65 in
Visibility -9999.0 miles
Clouds
Dew Point 32 °F
Humidity 61%
Rainfall 0.00 in
Snow Depth Not available.
5:55 AM 8:18 PM
Waning Crescent, 2% visible
METAR LKKV 250600Z 00000KT CAVOK 07/00 Q1004
Pressure 29.65 in
Visibility -9999.0 miles
Clouds
Dew Point 32 °F
Humidity 61%
Rainfall 0.00 in
Snow Depth Not available.
5:55 AM 8:18 PM
Waning Crescent, 2% visible
METAR LKKV 250600Z 00000KT CAVOK 07/00 Q1004

Get Severe Weather Alerts

Thanks for signing up!

Be on the lookout for a verification email in your inbox.

You'll start receiving the daily forecast at 8 AM.

×

10-Day Weather Forecast

×

Almanac

Astronomy

Apr. 25, 2017 Rise Set
Actual Time
Civil Twilight
Nautical Twilight
Astronomical Twilight
Moon
Length of Visible Light
Length of Day
Tomorrow will be .
, % of the Moon is Illuminated

Today's Extremes

Country Highs Country Lows

Community

WunderPhotos

WunderBlog® & News

Nearby

Air Quality

  Air Quality AQ Index Pollutant
Not available.

Snow Depth

Station Depth Elevation

Earthquake Activity

City Distance Mag. Time & Date
Minimum magnitude displayed is 2.5.

Coastal Water Temperatures

Place Temperature

Stations

Nearby Weather Stations

Station Location Temp. Windchill Dew Point Humidity Wind Precip. Elev Updated Type